sensor_id;sensor_type;location;lat;lon;timestamp;pressure;altitude;pressure_sealevel;temperature;humidity
40788;BME280;26497;52.494;7.546;2023-08-06T00:01:55;99978.47;;;19.32;78.64
40788;BME280;26497;52.494;7.546;2023-08-06T00:04:22;99980.06;;;19.36;78.30
40788;BME280;26497;52.494;7.546;2023-08-06T00:06:49;99976.72;;;19.31;78.70
40788;BME280;26497;52.494;7.546;2023-08-06T00:09:17;99974.94;;;19.32;78.46
40788;BME280;26497;52.494;7.546;2023-08-06T00:11:44;99974.78;;;19.35;78.33
40788;BME280;26497;52.494;7.546;2023-08-06T00:14:12;99975.94;;;19.29;78.37
40788;BME280;26497;52.494;7.546;2023-08-06T00:16:43;99979.69;;;19.25;78.55
40788;BME280;26497;52.494;7.546;2023-08-06T00:19:10;99975.28;;;19.24;78.50
40788;BME280;26497;52.494;7.546;2023-08-06T00:21:37;99970.69;;;19.27;78.70
40788;BME280;26497;52.494;7.546;2023-08-06T00:24:04;99974.16;;;19.29;78.42
40788;BME280;26497;52.494;7.546;2023-08-06T00:26:32;99971.38;;;19.31;78.26
40788;BME280;26497;52.494;7.546;2023-08-06T00:28:59;99967.78;;;19.32;78.18
40788;BME280;26497;52.494;7.546;2023-08-06T00:31:26;99964.25;;;19.32;77.98
40788;BME280;26497;52.494;7.546;2023-08-06T00:33:53;99961.88;;;19.25;78.42
40788;BME280;26497;52.494;7.546;2023-08-06T00:36:20;99970.97;;;19.21;78.68
40788;BME280;26497;52.494;7.546;2023-08-06T00:38:47;99964.69;;;19.22;78.77
40788;BME280;26497;52.494;7.546;2023-08-06T00:41:14;99962.88;;;19.23;78.81
40788;BME280;26497;52.494;7.546;2023-08-06T00:43:43;99959.84;;;19.30;78.20
40788;BME280;26497;52.494;7.546;2023-08-06T00:46:10;99961.44;;;19.35;77.85
40788;BME280;26497;52.494;7.546;2023-08-06T00:48:37;99962.72;;;19.26;78.11
40788;BME280;26497;52.494;7.546;2023-08-06T00:51:04;99960.19;;;19.23;78.33
40788;BME280;26497;52.494;7.546;2023-08-06T00:53:31;99963.03;;;19.20;78.30
40788;BME280;26497;52.494;7.546;2023-08-06T00:55:58;99955.72;;;19.23;78.25
40788;BME280;26497;52.494;7.546;2023-08-06T00:58:26;99957.59;;;19.21;77.79
40788;BME280;26497;52.494;7.546;2023-08-06T01:00:54;99947.16;;;19.17;77.98
40788;BME280;26497;52.494;7.546;2023-08-06T01:03:21;99948.00;;;19.17;77.41
40788;BME280;26497;52.494;7.546;2023-08-06T01:05:48;99936.66;;;19.12;77.38
40788;BME280;26497;52.494;7.546;2023-08-06T01:08:27;99943.19;;;19.06;77.74
40788;BME280;26497;52.494;7.546;2023-08-06T01:11:11;99940.94;;;18.97;78.13
40788;BME280;26497;52.494;7.546;2023-08-06T01:13:43;99942.00;;;18.93;78.33
40788;BME280;26497;52.494;7.546;2023-08-06T01:16:15;99939.22;;;18.94;78.48
40788;BME280;26497;52.494;7.546;2023-08-06T01:18:42;99932.94;;;18.97;78.49
40788;BME280;26497;52.494;7.546;2023-08-06T01:21:13;99923.53;;;19.07;77.79
40788;BME280;26497;52.494;7.546;2023-08-06T01:23:41;99927.16;;;19.06;77.59
40788;BME280;26497;52.494;7.546;2023-08-06T01:26:19;99930.63;;;19.08;77.73
40788;BME280;26497;52.494;7.546;2023-08-06T01:28:59;99929.97;;;19.03;77.86
40788;BME280;26497;52.494;7.546;2023-08-06T01:31:31;99927.22;;;19.05;77.82
40788;BME280;26497;52.494;7.546;2023-08-06T01:34:01;99936.41;;;18.99;78.20
40788;BME280;26497;52.494;7.546;2023-08-06T01:36:31;99933.63;;;19.00;78.19
40788;BME280;26497;52.494;7.546;2023-08-06T01:38:58;99926.50;;;19.01;78.28
40788;BME280;26497;52.494;7.546;2023-08-06T01:41:25;99940.06;;;18.96;78.54
40788;BME280;26497;52.494;7.546;2023-08-06T01:43:52;99933.25;;;18.89;78.72
40788;BME280;26497;52.494;7.546;2023-08-06T01:46:19;99936.66;;;18.93;78.62
40788;BME280;26497;52.494;7.546;2023-08-06T01:48:46;99922.16;;;18.98;78.17
40788;BME280;26497;52.494;7.546;2023-08-06T01:51:13;99924.81;;;18.98;77.69
40788;BME280;26497;52.494;7.546;2023-08-06T01:53:41;99928.78;;;18.90;78.02
40788;BME280;26497;52.494;7.546;2023-08-06T01:56:08;99925.75;;;18.97;77.80
40788;BME280;26497;52.494;7.546;2023-08-06T01:58:35;99916.91;;;18.97;78.26
40788;BME280;26497;52.494;7.546;2023-08-06T02:01:02;99916.75;;;19.00;78.32
40788;BME280;26497;52.494;7.546;2023-08-06T02:03:29;99911.97;;;19.07;78.40
40788;BME280;26497;52.494;7.546;2023-08-06T02:05:56;99908.28;;;19.09;78.17
40788;BME280;26497;52.494;7.546;2023-08-06T02:08:23;99908.94;;;19.14;78.00
40788;BME280;26497;52.494;7.546;2023-08-06T02:10:51;99900.63;;;19.21;77.79
40788;BME280;26497;52.494;7.546;2023-08-06T02:13:19;99905.97;;;19.21;77.85
40788;BME280;26497;52.494;7.546;2023-08-06T02:15:46;99900.69;;;19.19;78.04
40788;BME280;26497;52.494;7.546;2023-08-06T02:18:14;99891.63;;;19.22;77.49
40788;BME280;26497;52.494;7.546;2023-08-06T02:20:41;99894.00;;;19.10;77.82
40788;BME280;26497;52.494;7.546;2023-08-06T02:23:08;99894.19;;;19.06;77.69
40788;BME280;26497;52.494;7.546;2023-08-06T02:25:35;99885.09;;;19.10;77.78
40788;BME280;26497;52.494;7.546;2023-08-06T02:28:04;99877.81;;;19.13;77.72
40788;BME280;26497;52.494;7.546;2023-08-06T02:30:31;99875.28;;;19.10;77.50
40788;BME280;26497;52.494;7.546;2023-08-06T02:32:58;99870.00;;;19.09;77.58
40788;BME280;26497;52.494;7.546;2023-08-06T02:35:25;99860.19;;;19.09;77.49
40788;BME280;26497;52.494;7.546;2023-08-06T02:37:52;99852.47;;;19.03;77.48
40788;BME280;26497;52.494;7.546;2023-08-06T02:40:19;99859.22;;;18.91;77.62
40788;BME280;26497;52.494;7.546;2023-08-06T02:42:45;99850.50;;;18.88;77.40
40788;BME280;26497;52.494;7.546;2023-08-06T02:45:14;99860.59;;;18.81;77.06
40788;BME280;26497;52.494;7.546;2023-08-06T02:47:41;99853.19;;;18.68;76.97
40788;BME280;26497;52.494;7.546;2023-08-06T02:50:08;99851.88;;;18.58;76.77
40788;BME280;26497;52.494;7.546;2023-08-06T02:52:36;99857.00;;;18.44;76.91
40788;BME280;26497;52.494;7.546;2023-08-06T02:55:05;99845.88;;;18.34;76.73
40788;BME280;26497;52.494;7.546;2023-08-06T02:57:32;99846.56;;;18.18;76.79
40788;BME280;26497;52.494;7.546;2023-08-06T02:59:59;99842.53;;;18.09;76.75
40788;BME280;26497;52.494;7.546;2023-08-06T03:02:27;99841.50;;;18.12;76.63
40788;BME280;26497;52.494;7.546;2023-08-06T03:04:55;99838.44;;;18.01;76.63
40788;BME280;26497;52.494;7.546;2023-08-06T03:07:21;99837.09;;;17.90;76.50
40788;BME280;26497;52.494;7.546;2023-08-06T03:09:49;99839.25;;;17.82;76.66
40788;BME280;26497;52.494;7.546;2023-08-06T03:12:16;99846.72;;;17.74;76.75
40788;BME280;26497;52.494;7.546;2023-08-06T03:14:42;99841.66;;;17.67;76.75
40788;BME280;26497;52.494;7.546;2023-08-06T03:17:09;99843.78;;;17.59;76.67
40788;BME280;26497;52.494;7.546;2023-08-06T03:19:38;99846.56;;;17.56;77.18
40788;BME280;26497;52.494;7.546;2023-08-06T03:22:05;99841.38;;;17.53;77.19
40788;BME280;26497;52.494;7.546;2023-08-06T03:24:32;99841.16;;;17.58;77.10
40788;BME280;26497;52.494;7.546;2023-08-06T03:26:59;99840.72;;;17.68;76.54
40788;BME280;26497;52.494;7.546;2023-08-06T03:29:26;99843.13;;;17.75;75.94
40788;BME280;26497;52.494;7.546;2023-08-06T03:31:53;99838.59;;;17.77;76.34
40788;BME280;26497;52.494;7.546;2023-08-06T03:34:20;99833.97;;;17.60;76.66
40788;BME280;26497;52.494;7.546;2023-08-06T03:36:48;99830.72;;;17.53;76.94
40788;BME280;26497;52.494;7.546;2023-08-06T03:39:16;99830.44;;;17.59;76.46
40788;BME280;26497;52.494;7.546;2023-08-06T03:41:43;99818.84;;;17.60;76.37
40788;BME280;26497;52.494;7.546;2023-08-06T03:44:10;99825.16;;;17.58;76.45
40788;BME280;26497;52.494;7.546;2023-08-06T03:46:36;99828.06;;;17.53;76.28
40788;BME280;26497;52.494;7.546;2023-08-06T03:49:03;99828.22;;;17.48;76.32
40788;BME280;26497;52.494;7.546;2023-08-06T03:51:30;99825.81;;;17.42;76.36
40788;BME280;26497;52.494;7.546;2023-08-06T03:53:59;99833.13;;;17.37;76.54
40788;BME280;26497;52.494;7.546;2023-08-06T03:56:26;99828.06;;;17.31;76.69
40788;BME280;26497;52.494;7.546;2023-08-06T03:58:53;99823.75;;;17.28;76.69
40788;BME280;26497;52.494;7.546;2023-08-06T04:01:20;99822.94;;;17.26;77.10
40788;BME280;26497;52.494;7.546;2023-08-06T04:03:47;99828.94;;;17.31;77.13
40788;BME280;26497;52.494;7.546;2023-08-06T04:06:14;99825.09;;;17.38;77.29
40788;BME280;26497;52.494;7.546;2023-08-06T04:08:41;99813.44;;;17.41;77.25
40788;BME280;26497;52.494;7.546;2023-08-06T04:11:09;99827.28;;;17.49;77.49
40788;BME280;26497;52.494;7.546;2023-08-06T04:13:36;99815.13;;;17.64;77.76
40788;BME280;26497;52.494;7.546;2023-08-06T04:16:03;99816.06;;;17.84;78.06
40788;BME280;26497;52.494;7.546;2023-08-06T04:18:31;99814.50;;;17.99;78.41
40788;BME280;26497;52.494;7.546;2023-08-06T04:20:58;99819.22;;;18.13;78.14
40788;BME280;26497;52.494;7.546;2023-08-06T04:23:25;99818.25;;;18.16;78.44
40788;BME280;26497;52.494;7.546;2023-08-06T04:25:52;99817.72;;;18.26;78.03
40788;BME280;26497;52.494;7.546;2023-08-06T04:28:20;99811.47;;;18.27;77.99
40788;BME280;26497;52.494;7.546;2023-08-06T04:30:47;99814.41;;;18.21;77.77
40788;BME280;26497;52.494;7.546;2023-08-06T04:33:14;99811.09;;;18.16;77.70
40788;BME280;26497;52.494;7.546;2023-08-06T04:35:41;99818.16;;;18.17;77.65
40788;BME280;26497;52.494;7.546;2023-08-06T04:38:08;99812.09;;;18.13;77.41
40788;BME280;26497;52.494;7.546;2023-08-06T04:40:35;99810.38;;;18.12;77.41
40788;BME280;26497;52.494;7.546;2023-08-06T04:43:02;99807.63;;;18.14;77.49
40788;BME280;26497;52.494;7.546;2023-08-06T04:45:31;99817.44;;;18.13;77.50
40788;BME280;26497;52.494;7.546;2023-08-06T04:47:58;99825.34;;;18.15;77.71
40788;BME280;26497;52.494;7.546;2023-08-06T04:50:25;99826.91;;;18.21;78.14
40788;BME280;26497;52.494;7.546;2023-08-06T04:52:52;99825.19;;;18.39;79.06
40788;BME280;26497;52.494;7.546;2023-08-06T04:55:19;99823.09;;;18.65;79.37
40788;BME280;26497;52.494;7.546;2023-08-06T04:57:45;99830.47;;;18.98;79.69
40788;BME280;26497;52.494;7.546;2023-08-06T05:00:13;99828.75;;;19.32;80.63
40788;BME280;26497;52.494;7.546;2023-08-06T05:02:41;99828.88;;;19.66;80.53
40788;BME280;26497;52.494;7.546;2023-08-06T05:05:08;99826.88;;;19.87;79.56
40788;BME280;26497;52.494;7.546;2023-08-06T05:07:35;99820.13;;;19.97;78.90
40788;BME280;26497;52.494;7.546;2023-08-06T05:10:02;99824.22;;;20.04;78.68
40788;BME280;26497;52.494;7.546;2023-08-06T05:12:30;99823.19;;;20.07;78.20
40788;BME280;26497;52.494;7.546;2023-08-06T05:14:57;99823.78;;;20.12;78.03
40788;BME280;26497;52.494;7.546;2023-08-06T05:17:24;99829.56;;;20.04;78.09
40788;BME280;26497;52.494;7.546;2023-08-06T05:19:52;99828.94;;;19.99;78.53
40788;BME280;26497;52.494;7.546;2023-08-06T05:22:19;99821.91;;;20.14;78.89
40788;BME280;26497;52.494;7.546;2023-08-06T05:24:46;99821.72;;;20.17;78.48
40788;BME280;26497;52.494;7.546;2023-08-06T05:27:13;99826.84;;;20.22;78.01
40788;BME280;26497;52.494;7.546;2023-08-06T05:29:40;99835.06;;;20.19;78.38
40788;BME280;26497;52.494;7.546;2023-08-06T05:32:07;99835.66;;;20.24;78.92
40788;BME280;26497;52.494;7.546;2023-08-06T05:34:34;99830.84;;;20.31;78.36
40788;BME280;26497;52.494;7.546;2023-08-06T05:39:30;99832.34;;;20.53;78.53
40788;BME280;26497;52.494;7.546;2023-08-06T05:41:57;99829.75;;;20.67;78.73
40788;BME280;26497;52.494;7.546;2023-08-06T05:44:24;99826.84;;;20.88;78.41
40788;BME280;26497;52.494;7.546;2023-08-06T05:46:51;99831.94;;;21.09;78.47
40788;BME280;26497;52.494;7.546;2023-08-06T05:49:19;99841.44;;;21.45;78.39
40788;BME280;26497;52.494;7.546;2023-08-06T05:51:46;99835.81;;;21.65;78.17
40788;BME280;26497;52.494;7.546;2023-08-06T05:54:14;99834.69;;;21.84;76.68
40788;BME280;26497;52.494;7.546;2023-08-06T05:56:41;99835.94;;;21.93;76.36
40788;BME280;26497;52.494;7.546;2023-08-06T05:59:08;99842.09;;;22.09;76.20
40788;BME280;26497;52.494;7.546;2023-08-06T06:01:35;99839.22;;;22.27;76.08
40788;BME280;26497;52.494;7.546;2023-08-06T06:04:02;99842.69;;;22.29;75.64
40788;BME280;26497;52.494;7.546;2023-08-06T06:06:29;99835.97;;;22.22;75.12
40788;BME280;26497;52.494;7.546;2023-08-06T06:08:56;99841.44;;;22.20;75.45
40788;BME280;26497;52.494;7.546;2023-08-06T06:11:25;99843.81;;;22.25;75.36
40788;BME280;26497;52.494;7.546;2023-08-06T06:13:52;99844.78;;;22.24;74.70
40788;BME280;26497;52.494;7.546;2023-08-06T06:16:19;99843.16;;;22.21;74.62
40788;BME280;26497;52.494;7.546;2023-08-06T06:18:46;99833.19;;;22.23;74.49
40788;BME280;26497;52.494;7.546;2023-08-06T06:21:13;99832.81;;;22.30;75.42
40788;BME280;26497;52.494;7.546;2023-08-06T06:23:40;99834.63;;;22.29;74.75
40788;BME280;26497;52.494;7.546;2023-08-06T06:26:06;99841.34;;;22.36;75.17
40788;BME280;26497;52.494;7.546;2023-08-06T06:28:35;99848.34;;;22.39;74.85
40788;BME280;26497;52.494;7.546;2023-08-06T06:31:02;99842.44;;;22.48;74.96
40788;BME280;26497;52.494;7.546;2023-08-06T06:33:29;99837.31;;;22.58;74.94
40788;BME280;26497;52.494;7.546;2023-08-06T06:35:56;99850.75;;;22.73;75.04
40788;BME280;26497;52.494;7.546;2023-08-06T06:38:23;99842.34;;;22.92;75.25
40788;BME280;26497;52.494;7.546;2023-08-06T06:40:56;99845.59;;;22.97;74.25
40788;BME280;26497;52.494;7.546;2023-08-06T06:43:23;99847.50;;;22.95;74.36
40788;BME280;26497;52.494;7.546;2023-08-06T06:45:56;99854.22;;;23.02;74.05
40788;BME280;26497;52.494;7.546;2023-08-06T06:48:25;99849.91;;;23.00;73.65
40788;BME280;26497;52.494;7.546;2023-08-06T06:50:52;99849.34;;;22.94;73.22
40788;BME280;26497;52.494;7.546;2023-08-06T06:53:19;99856.66;;;22.92;73.22
40788;BME280;26497;52.494;7.546;2023-08-06T06:55:47;99844.38;;;22.88;72.26
40788;BME280;26497;52.494;7.546;2023-08-06T06:58:15;99856.16;;;22.86;72.37
40788;BME280;26497;52.494;7.546;2023-08-06T07:00:42;99848.88;;;22.88;72.45
40788;BME280;26497;52.494;7.546;2023-08-06T07:03:11;99853.56;;;22.98;72.63
40788;BME280;26497;52.494;7.546;2023-08-06T07:05:38;99849.66;;;23.17;72.03
40788;BME280;26497;52.494;7.546;2023-08-06T07:08:04;99846.50;;;23.25;71.58
40788;BME280;26497;52.494;7.546;2023-08-06T07:10:31;99845.19;;;23.31;71.52
40788;BME280;26497;52.494;7.546;2023-08-06T07:12:58;99847.22;;;23.54;70.68
40788;BME280;26497;52.494;7.546;2023-08-06T07:15:26;99851.13;;;23.76;70.28
40788;BME280;26497;52.494;7.546;2023-08-06T07:17:53;99853.53;;;23.94;69.56
40788;BME280;26497;52.494;7.546;2023-08-06T07:20:21;99858.94;;;24.20;67.57
40788;BME280;26497;52.494;7.546;2023-08-06T07:22:48;99847.72;;;24.39;64.99
40788;BME280;26497;52.494;7.546;2023-08-06T07:25:16;99852.22;;;24.51;63.92
40788;BME280;26497;52.494;7.546;2023-08-06T07:27:43;99857.59;;;24.64;62.34
40788;BME280;26497;52.494;7.546;2023-08-06T07:30:10;99852.09;;;24.79;62.15
40788;BME280;26497;52.494;7.546;2023-08-06T07:32:38;99850.13;;;24.94;62.33
40788;BME280;26497;52.494;7.546;2023-08-06T07:35:05;99855.50;;;25.18;60.88
40788;BME280;26497;52.494;7.546;2023-08-06T07:37:36;99847.06;;;25.23;61.17
40788;BME280;26497;52.494;7.546;2023-08-06T07:40:04;99843.44;;;25.35;59.93
40788;BME280;26497;52.494;7.546;2023-08-06T07:42:31;99850.41;;;25.51;61.13
40788;BME280;26497;52.494;7.546;2023-08-06T07:44:59;99851.94;;;25.66;56.99
40788;BME280;26497;52.494;7.546;2023-08-06T07:47:26;99842.66;;;25.82;55.13
40788;BME280;26497;52.494;7.546;2023-08-06T07:49:53;99847.81;;;25.85;57.12
40788;BME280;26497;52.494;7.546;2023-08-06T07:52:20;99846.88;;;26.09;55.40
40788;BME280;26497;52.494;7.546;2023-08-06T07:54:48;99840.34;;;26.00;54.70
40788;BME280;26497;52.494;7.546;2023-08-06T07:57:15;99847.47;;;26.01;55.90
40788;BME280;26497;52.494;7.546;2023-08-06T07:59:42;99851.16;;;26.11;56.71
40788;BME280;26497;52.494;7.546;2023-08-06T08:02:09;99855.13;;;26.18;57.55
40788;BME280;26497;52.494;7.546;2023-08-06T08:04:36;99847.66;;;26.45;56.69
40788;BME280;26497;52.494;7.546;2023-08-06T08:07:04;99850.00;;;26.84;55.82
40788;BME280;26497;52.494;7.546;2023-08-06T08:09:31;99849.72;;;26.98;55.47
40788;BME280;26497;52.494;7.546;2023-08-06T08:11:59;99846.84;;;27.11;55.18
40788;BME280;26497;52.494;7.546;2023-08-06T08:14:28;99850.50;;;27.21;54.02
40788;BME280;26497;52.494;7.546;2023-08-06T08:17:01;99847.78;;;27.21;53.76
40788;BME280;26497;52.494;7.546;2023-08-06T08:19:28;99848.59;;;27.33;53.21
40788;BME280;26497;52.494;7.546;2023-08-06T08:21:55;99848.56;;;27.45;52.98
40788;BME280;26497;52.494;7.546;2023-08-06T08:24:23;99855.28;;;27.62;52.07
40788;BME280;26497;52.494;7.546;2023-08-06T08:26:50;99854.94;;;27.55;50.76
40788;BME280;26497;52.494;7.546;2023-08-06T08:29:19;99857.66;;;27.44;49.77
40788;BME280;26497;52.494;7.546;2023-08-06T08:31:47;99866.13;;;27.18;50.31
40788;BME280;26497;52.494;7.546;2023-08-06T08:34:15;99861.63;;;26.96;50.21
40788;BME280;26497;52.494;7.546;2023-08-06T08:36:42;99856.88;;;26.88;51.62
40788;BME280;26497;52.494;7.546;2023-08-06T08:39:09;99858.19;;;26.93;51.23
40788;BME280;26497;52.494;7.546;2023-08-06T08:41:37;99859.06;;;26.94;51.98
40788;BME280;26497;52.494;7.546;2023-08-06T08:44:07;99854.97;;;27.11;52.26
40788;BME280;26497;52.494;7.546;2023-08-06T08:46:37;99856.50;;;27.25;52.38
40788;BME280;26497;52.494;7.546;2023-08-06T08:49:05;99856.56;;;27.46;52.22
40788;BME280;26497;52.494;7.546;2023-08-06T08:51:33;99855.63;;;27.69;49.33
40788;BME280;26497;52.494;7.546;2023-08-06T08:54:03;99856.41;;;27.59;48.26
40788;BME280;26497;52.494;7.546;2023-08-06T08:56:31;99849.41;;;27.57;48.03
40788;BME280;26497;52.494;7.546;2023-08-06T08:58:58;99857.19;;;27.50;48.89
40788;BME280;26497;52.494;7.546;2023-08-06T09:01:25;99855.16;;;27.63;48.31
40788;BME280;26497;52.494;7.546;2023-08-06T09:03:56;99855.69;;;27.78;48.96
40788;BME280;26497;52.494;7.546;2023-08-06T09:06:25;99856.72;;;28.08;48.92
40788;BME280;26497;52.494;7.546;2023-08-06T09:09:01;99853.50;;;28.46;48.88
40788;BME280;26497;52.494;7.546;2023-08-06T09:11:29;99845.38;;;28.87;47.17
40788;BME280;26497;52.494;7.546;2023-08-06T09:14:06;99852.44;;;29.28;45.87
40788;BME280;26497;52.494;7.546;2023-08-06T09:16:34;99857.63;;;29.51;44.76
40788;BME280;26497;52.494;7.546;2023-08-06T09:19:08;99855.19;;;29.68;43.89
40788;BME280;26497;52.494;7.546;2023-08-06T09:21:37;99855.44;;;30.04;43.21
40788;BME280;26497;52.494;7.546;2023-08-06T09:24:08;99850.78;;;30.34;42.50
40788;BME280;26497;52.494;7.546;2023-08-06T09:26:36;99851.22;;;30.57;40.66
40788;BME280;26497;52.494;7.546;2023-08-06T09:29:05;99853.28;;;30.83;41.53
40788;BME280;26497;52.494;7.546;2023-08-06T09:31:34;99854.25;;;31.10;40.75
40788;BME280;26497;52.494;7.546;2023-08-06T09:34:14;99863.47;;;31.45;41.10
40788;BME280;26497;52.494;7.546;2023-08-06T09:36:42;99852.19;;;31.58;38.82
40788;BME280;26497;52.494;7.546;2023-08-06T09:39:13;99861.19;;;31.59;40.10
40788;BME280;26497;52.494;7.546;2023-08-06T09:41:41;99860.22;;;32.04;39.10
40788;BME280;26497;52.494;7.546;2023-08-06T09:44:16;99861.66;;;32.43;38.33
40788;BME280;26497;52.494;7.546;2023-08-06T09:46:47;99862.53;;;32.44;38.93
40788;BME280;26497;52.494;7.546;2023-08-06T09:49:17;99862.59;;;32.69;38.56
40788;BME280;26497;52.494;7.546;2023-08-06T09:51:44;99863.06;;;32.99;38.23
40788;BME280;26497;52.494;7.546;2023-08-06T09:54:12;99859.53;;;33.06;36.97
40788;BME280;26497;52.494;7.546;2023-08-06T09:56:42;99867.41;;;33.34;36.28
40788;BME280;26497;52.494;7.546;2023-08-06T09:59:10;99864.56;;;33.52;35.88
40788;BME280;26497;52.494;7.546;2023-08-06T10:01:37;99871.22;;;33.66;34.75
40788;BME280;26497;52.494;7.546;2023-08-06T10:04:06;99865.06;;;33.56;33.95
40788;BME280;26497;52.494;7.546;2023-08-06T10:06:35;99865.75;;;33.50;34.15
40788;BME280;26497;52.494;7.546;2023-08-06T10:09:03;99858.09;;;33.70;35.36
40788;BME280;26497;52.494;7.546;2023-08-06T10:11:30;99863.50;;;34.11;34.10
40788;BME280;26497;52.494;7.546;2023-08-06T10:14:04;99862.22;;;34.47;31.06
40788;BME280;26497;52.494;7.546;2023-08-06T10:16:33;99871.66;;;34.28;32.37
40788;BME280;26497;52.494;7.546;2023-08-06T10:19:01;99866.53;;;34.33;32.96
40788;BME280;26497;52.494;7.546;2023-08-06T10:21:31;99856.59;;;34.49;33.53
40788;BME280;26497;52.494;7.546;2023-08-06T10:23:59;99860.09;;;34.66;32.48
40788;BME280;26497;52.494;7.546;2023-08-06T10:26:27;99863.28;;;35.18;32.58
40788;BME280;26497;52.494;7.546;2023-08-06T10:28:55;99857.59;;;35.51;32.43
40788;BME280;26497;52.494;7.546;2023-08-06T10:31:55;99856.78;;;36.04;31.56
40788;BME280;26497;52.494;7.546;2023-08-06T10:34:25;99862.59;;;36.24;29.24
40788;BME280;26497;52.494;7.546;2023-08-06T10:36:55;99856.06;;;35.86;30.49
40788;BME280;26497;52.494;7.546;2023-08-06T10:39:23;99864.88;;;35.97;30.71
40788;BME280;26497;52.494;7.546;2023-08-06T10:41:50;99860.94;;;35.99;30.53
40788;BME280;26497;52.494;7.546;2023-08-06T10:44:17;99856.84;;;35.95;29.31
40788;BME280;26497;52.494;7.546;2023-08-06T10:46:44;99846.03;;;35.79;30.69
40788;BME280;26497;52.494;7.546;2023-08-06T10:49:18;99848.66;;;36.10;29.96
40788;BME280;26497;52.494;7.546;2023-08-06T10:51:45;99850.00;;;36.14;31.17
40788;BME280;26497;52.494;7.546;2023-08-06T10:54:13;99845.75;;;36.27;28.60
40788;BME280;26497;52.494;7.546;2023-08-06T10:56:41;99846.22;;;36.15;31.36
40788;BME280;26497;52.494;7.546;2023-08-06T10:59:10;99842.59;;;36.45;29.46
40788;BME280;26497;52.494;7.546;2023-08-06T11:01:38;99829.66;;;36.24;30.95
40788;BME280;26497;52.494;7.546;2023-08-06T11:04:06;99844.03;;;36.26;28.71
40788;BME280;26497;52.494;7.546;2023-08-06T11:06:32;99841.38;;;36.33;30.35
40788;BME280;26497;52.494;7.546;2023-08-06T11:09:01;99840.91;;;36.59;30.13
40788;BME280;26497;52.494;7.546;2023-08-06T11:11:28;99838.75;;;36.91;29.72
40788;BME280;26497;52.494;7.546;2023-08-06T11:13:56;99842.75;;;36.88;29.57
40788;BME280;26497;52.494;7.546;2023-08-06T11:16:24;99841.56;;;36.46;30.94
40788;BME280;26497;52.494;7.546;2023-08-06T11:18:51;99833.91;;;36.11;30.84
40788;BME280;26497;52.494;7.546;2023-08-06T11:21:22;99831.84;;;35.75;31.10
40788;BME280;26497;52.494;7.546;2023-08-06T11:23:51;99828.13;;;35.53;31.56
40788;BME280;26497;52.494;7.546;2023-08-06T11:26:19;99832.56;;;35.54;31.39
40788;BME280;26497;52.494;7.546;2023-08-06T11:28:46;99825.78;;;35.65;30.77
40788;BME280;26497;52.494;7.546;2023-08-06T11:31:20;99825.41;;;35.83;29.98
40788;BME280;26497;52.494;7.546;2023-08-06T11:33:47;99825.19;;;36.08;30.57
40788;BME280;26497;52.494;7.546;2023-08-06T11:36:14;99824.84;;;36.26;30.48
40788;BME280;26497;52.494;7.546;2023-08-06T11:38:43;99822.44;;;36.68;30.30
40788;BME280;26497;52.494;7.546;2023-08-06T11:41:12;99821.41;;;37.99;28.58
40788;BME280;26497;52.494;7.546;2023-08-06T11:43:39;99822.78;;;39.07;26.10
40788;BME280;26497;52.494;7.546;2023-08-06T11:46:07;99812.44;;;39.77;26.97
40788;BME280;26497;52.494;7.546;2023-08-06T11:48:51;99822.00;;;39.81;23.86
40788;BME280;26497;52.494;7.546;2023-08-06T11:51:22;99812.25;;;39.38;23.14
40788;BME280;26497;52.494;7.546;2023-08-06T11:53:55;99817.28;;;38.17;25.52
40788;BME280;26497;52.494;7.546;2023-08-06T11:56:22;99815.66;;;37.00;27.43
40788;BME280;26497;52.494;7.546;2023-08-06T11:58:51;99818.72;;;35.70;27.94
40788;BME280;26497;52.494;7.546;2023-08-06T12:01:19;99813.53;;;34.74;29.54
40788;BME280;26497;52.494;7.546;2023-08-06T12:03:46;99814.28;;;34.11;31.32
40788;BME280;26497;52.494;7.546;2023-08-06T12:06:14;99806.13;;;33.78;31.32
40788;BME280;26497;52.494;7.546;2023-08-06T12:08:41;99803.56;;;33.60;33.08
40788;BME280;26497;52.494;7.546;2023-08-06T12:11:08;99808.31;;;33.25;34.19
40788;BME280;26497;52.494;7.546;2023-08-06T12:13:35;99805.44;;;33.18;34.41
40788;BME280;26497;52.494;7.546;2023-08-06T12:16:02;99813.50;;;32.77;30.54
40788;BME280;26497;52.494;7.546;2023-08-06T12:18:32;99807.91;;;32.09;32.40
40788;BME280;26497;52.494;7.546;2023-08-06T12:20:59;99804.34;;;31.64;34.93
40788;BME280;26497;52.494;7.546;2023-08-06T12:23:27;99800.72;;;31.55;36.72
40788;BME280;26497;52.494;7.546;2023-08-06T12:25:55;99799.06;;;31.81;37.05
40788;BME280;26497;52.494;7.546;2023-08-06T12:28:22;99808.88;;;32.00;34.17
40788;BME280;26497;52.494;7.546;2023-08-06T12:30:52;99812.00;;;31.79;34.41
40788;BME280;26497;52.494;7.546;2023-08-06T12:33:22;99808.38;;;31.33;35.56
40788;BME280;26497;52.494;7.546;2023-08-06T12:35:49;99811.00;;;31.07;36.38
40788;BME280;26497;52.494;7.546;2023-08-06T12:38:17;99814.78;;;30.78;36.11
40788;BME280;26497;52.494;7.546;2023-08-06T12:40:46;99812.09;;;30.40;37.51
40788;BME280;26497;52.494;7.546;2023-08-06T12:43:19;99809.47;;;30.21;38.63
40788;BME280;26497;52.494;7.546;2023-08-06T12:45:45;99812.50;;;30.08;38.28
40788;BME280;26497;52.494;7.546;2023-08-06T12:48:14;99812.22;;;29.91;39.99
40788;BME280;26497;52.494;7.546;2023-08-06T12:50:42;99821.16;;;29.74;39.52
40788;BME280;26497;52.494;7.546;2023-08-06T12:53:12;99807.47;;;29.46;37.70
40788;BME280;26497;52.494;7.546;2023-08-06T12:55:39;99821.03;;;29.46;38.53
40788;BME280;26497;52.494;7.546;2023-08-06T12:58:09;99806.28;;;29.28;39.81
40788;BME280;26497;52.494;7.546;2023-08-06T13:00:36;99810.00;;;29.67;40.29
40788;BME280;26497;52.494;7.546;2023-08-06T13:03:04;99815.31;;;30.26;39.42
40788;BME280;26497;52.494;7.546;2023-08-06T13:05:31;99818.38;;;30.97;37.52
40788;BME280;26497;52.494;7.546;2023-08-06T13:08:00;99818.13;;;32.07;34.69